createdAt,value
2022-10-01T00:00:02.259Z,9.66
2022-10-01T00:05:25.256Z,9.69
2022-10-01T00:10:30.435Z,9.76
2022-10-01T00:15:33.419Z,9.80
2022-10-01T00:20:40.473Z,9.75
2022-10-01T00:25:43.942Z,9.73
2022-10-01T00:30:48.184Z,9.67
2022-10-01T00:35:54.873Z,9.59
2022-10-01T00:40:58.765Z,9.48
2022-10-01T00:46:13.772Z,9.46
2022-10-01T00:51:16.885Z,9.45
2022-10-01T00:56:19.893Z,9.45
2022-10-01T01:01:24.766Z,9.45
2022-10-01T01:06:27.810Z,9.53
2022-10-01T01:11:58.813Z,9.53
2022-10-01T01:17:10.979Z,9.60
2022-10-01T01:22:15.478Z,9.60
2022-10-01T01:27:45.176Z,9.63
2022-10-01T01:33:04.816Z,9.66
2022-10-01T01:38:14.362Z,9.67
2022-10-01T01:43:24.304Z,9.68
2022-10-01T01:48:29.490Z,9.73
2022-10-01T01:53:32.601Z,9.78
2022-10-01T01:58:36.472Z,9.81
2022-10-01T02:03:39.432Z,9.82
2022-10-01T02:08:58.311Z,9.83
2022-10-01T02:14:22.822Z,9.69
2022-10-01T02:19:36.328Z,9.48
2022-10-01T02:24:57.100Z,9.33
2022-10-01T02:30:02.764Z,9.31
2022-10-01T02:35:12.243Z,9.19
2022-10-01T02:40:18.923Z,9.06
2022-10-01T02:45:25.096Z,8.98
2022-10-01T02:50:35.015Z,8.92
2022-10-01T02:55:39.924Z,8.75
2022-10-01T03:00:42.823Z,8.75
2022-10-01T03:05:45.829Z,8.75
2022-10-01T03:10:48.732Z,8.74
2022-10-01T03:15:51.888Z,8.69
2022-10-01T03:20:54.845Z,8.61
2022-10-01T03:25:57.859Z,8.54
2022-10-01T03:31:06.266Z,8.48
2022-10-01T03:36:09.188Z,8.44
2022-10-01T03:41:14.551Z,8.42
2022-10-01T03:46:18.273Z,8.37
2022-10-01T03:51:21.178Z,8.29
2022-10-01T03:56:26.231Z,8.22
2022-10-01T04:01:29.287Z,8.15
2022-10-01T04:06:32.934Z,8.09
2022-10-01T04:11:36.820Z,8.03
2022-10-01T04:16:40.048Z,7.94
2022-10-01T04:21:43.106Z,7.92
2022-10-01T04:26:46.010Z,7.88
2022-10-01T04:31:48.950Z,7.87
2022-10-01T04:36:51.920Z,7.81
2022-10-01T04:41:54.931Z,7.77
2022-10-01T04:46:57.881Z,7.74
2022-10-01T04:52:01.349Z,7.80
2022-10-01T04:57:04.458Z,7.79
2022-10-01T05:02:07.435Z,7.81
2022-10-01T05:07:10.473Z,7.86
2022-10-01T05:12:13.375Z,8.48
2022-10-01T05:17:17.404Z,9.59
2022-10-01T05:22:20.173Z,10.69
2022-10-01T05:27:23.109Z,11.90
2022-10-01T05:32:26.015Z,13.17
2022-10-01T05:37:28.918Z,14.51
2022-10-01T05:42:31.720Z,15.69
2022-10-01T05:47:34.623Z,16.81
2022-10-01T05:52:37.531Z,17.63
2022-10-01T05:57:40.435Z,17.80
2022-10-01T06:02:43.630Z,18.34
2022-10-01T06:07:48.726Z,19.17
2022-10-01T06:12:52.010Z,19.89
2022-10-01T06:17:55.126Z,20.70
2022-10-01T06:22:58.566Z,21.38
2022-10-01T06:28:02.305Z,22.33
2022-10-01T06:33:16.017Z,23.22
2022-10-01T06:38:21.309Z,23.40
2022-10-01T06:43:26.680Z,23.35
2022-10-01T06:48:31.125Z,23.49
2022-10-01T06:53:33.988Z,23.87
2022-10-01T06:58:37.501Z,24.05
2022-10-01T07:03:40.421Z,24.41
2022-10-01T07:08:43.718Z,24.82
2022-10-01T07:13:49.990Z,25.21
2022-10-01T07:18:55.362Z,25.61
2022-10-01T07:23:58.270Z,26.09
2022-10-01T07:29:01.534Z,26.53
2022-10-01T07:34:04.396Z,26.86
2022-10-01T07:39:09.862Z,27.26
2022-10-01T07:44:12.870Z,27.68
2022-10-01T07:49:19.781Z,27.60
2022-10-01T07:54:23.447Z,27.29
2022-10-01T07:59:27.402Z,27.37
2022-10-01T08:04:50.792Z,27.09
2022-10-01T08:09:54.204Z,26.50
2022-10-01T08:14:57.284Z,26.10
2022-10-01T08:20:00.420Z,25.58
2022-10-01T08:25:03.780Z,23.72
2022-10-01T08:30:07.424Z,21.18
2022-10-01T08:35:10.427Z,19.44
2022-10-01T08:40:13.297Z,18.35
2022-10-01T08:45:27.807Z,17.60
2022-10-01T08:50:30.661Z,17.05
2022-10-01T08:55:37.586Z,16.66
2022-10-01T09:00:44.785Z,16.38
2022-10-01T09:05:59.734Z,16.21
2022-10-01T09:11:12.751Z,16.01
2022-10-01T09:16:37.446Z,15.95
2022-10-01T09:21:55.493Z,15.98
2022-10-01T09:26:58.355Z,15.93
2022-10-01T09:32:04.089Z,16.01
2022-10-01T09:37:15.423Z,15.97
2022-10-01T09:42:18.737Z,15.85
2022-10-01T09:47:26.832Z,15.79
2022-10-01T09:52:39.311Z,15.85
2022-10-01T09:57:47.872Z,15.86
2022-10-01T10:02:52.454Z,15.84
2022-10-01T10:08:00.214Z,15.84
2022-10-01T10:13:05.244Z,15.89
2022-10-01T10:18:24.067Z,15.99
2022-10-01T10:23:29.512Z,16.17
2022-10-01T10:28:44.654Z,16.22
2022-10-01T10:33:54.234Z,16.26
2022-10-01T10:38:59.027Z,16.33
2022-10-01T10:44:07.582Z,16.37
2022-10-01T10:49:21.079Z,16.31
2022-10-01T10:54:40.824Z,16.27
2022-10-01T10:59:56.291Z,16.34
2022-10-01T11:05:20.485Z,16.37
2022-10-01T11:10:42.118Z,16.45
2022-10-01T11:16:20.303Z,16.49
2022-10-01T11:21:35.647Z,16.59
2022-10-01T11:26:53.404Z,16.62
2022-10-01T11:32:19.671Z,16.59
2022-10-01T11:37:25.525Z,16.56
2022-10-01T11:42:36.765Z,16.60
2022-10-01T11:47:54.885Z,16.53
2022-10-01T11:53:09.765Z,16.43
2022-10-01T11:58:43.294Z,16.48
2022-10-01T12:03:59.316Z,16.66
2022-10-01T12:09:32.723Z,16.65
2022-10-01T12:14:44.845Z,16.41
2022-10-01T12:19:52.246Z,16.32
2022-10-01T12:24:55.457Z,16.39
2022-10-01T12:30:10.151Z,16.52
2022-10-01T12:35:28.005Z,16.66
2022-10-01T12:40:38.622Z,16.83
2022-10-01T12:45:54.478Z,16.93
2022-10-01T12:51:00.089Z,16.91
2022-10-01T12:56:31.321Z,16.88
2022-10-01T13:02:14.731Z,16.72
2022-10-01T13:07:49.220Z,16.58
2022-10-01T13:13:06.651Z,16.52
2022-10-01T13:18:12.375Z,16.43
2022-10-01T13:23:30.495Z,16.37
2022-10-01T13:28:57.669Z,16.29
2022-10-01T13:34:01.905Z,16.31
2022-10-01T13:39:04.842Z,16.36
2022-10-01T13:44:08.126Z,16.37
2022-10-01T13:49:25.325Z,16.35
2022-10-01T13:54:33.285Z,16.31
2022-10-01T13:59:38.297Z,16.37
2022-10-01T14:04:43.872Z,16.38
2022-10-01T14:09:51.633Z,16.31
2022-10-01T14:15:19.223Z,16.23
2022-10-01T14:20:35.657Z,16.07
2022-10-01T14:26:03.409Z,15.72
2022-10-01T14:31:35.349Z,15.30
2022-10-01T14:36:53.640Z,14.92
2022-10-01T14:41:58.215Z,14.63
2022-10-01T14:47:21.897Z,14.41
2022-10-01T14:52:30.123Z,14.24
2022-10-01T14:58:00.578Z,14.60
2022-10-01T15:03:15.790Z,15.08
2022-10-01T15:08:23.521Z,14.83
2022-10-01T15:13:32.431Z,14.29
2022-10-01T15:18:36.912Z,14.44
2022-10-01T15:23:40.912Z,14.84
2022-10-01T15:28:44.625Z,15.00
2022-10-01T15:33:47.904Z,14.92
2022-10-01T15:38:51.740Z,14.95
2022-10-01T15:43:54.817Z,14.81
2022-10-01T15:49:17.570Z,14.83
2022-10-01T15:54:20.548Z,14.73
2022-10-01T15:59:23.659Z,14.59
2022-10-01T16:04:26.856Z,14.51
2022-10-01T16:09:30.810Z,14.46
2022-10-01T16:14:45.211Z,14.30
2022-10-01T16:19:50.734Z,14.21
2022-10-01T16:25:01.824Z,14.10
2022-10-01T16:30:07.805Z,14.15
2022-10-01T16:35:21.057Z,14.07
2022-10-01T16:40:26.721Z,14.04
2022-10-01T16:45:36.771Z,14.02
2022-10-01T16:50:40.209Z,14.02
2022-10-01T16:55:44.207Z,14.01
2022-10-01T17:00:47.103Z,14.01
2022-10-01T17:05:50.259Z,14.04
2022-10-01T17:10:58.796Z,14.01
2022-10-01T17:16:06.094Z,14.02
2022-10-01T17:21:09.732Z,13.97
2022-10-01T17:26:12.650Z,13.89
2022-10-01T17:31:18.008Z,13.83
2022-10-01T17:36:21.298Z,13.91
2022-10-01T17:41:24.304Z,13.88
2022-10-01T17:46:27.413Z,13.90
2022-10-01T17:51:30.520Z,13.80
2022-10-01T17:56:38.409Z,13.86
2022-10-01T18:01:41.857Z,13.85
2022-10-01T18:06:45.023Z,13.93
2022-10-01T18:11:51.916Z,13.81
2022-10-01T18:16:54.911Z,13.88
2022-10-01T18:21:59.902Z,13.88
2022-10-01T18:27:02.935Z,13.80
2022-10-01T18:32:17.842Z,13.79
2022-10-01T18:37:29.634Z,13.80
2022-10-01T18:42:44.577Z,13.67
2022-10-01T18:47:53.365Z,13.61
2022-10-01T18:53:08.552Z,13.61
2022-10-01T18:58:33.264Z,13.64
2022-10-01T19:04:00.443Z,13.56
2022-10-01T19:09:17.270Z,13.57
2022-10-01T19:14:37.991Z,13.51
2022-10-01T19:19:52.984Z,13.47
2022-10-01T19:25:15.398Z,13.50
2022-10-01T19:30:20.070Z,13.48
2022-10-01T19:35:27.905Z,13.51
2022-10-01T19:40:55.285Z,13.39
2022-10-01T19:46:09.352Z,13.43
2022-10-01T19:51:16.182Z,13.40
2022-10-01T19:56:26.164Z,13.29
2022-10-01T20:01:38.471Z,13.36
2022-10-01T20:06:44.723Z,13.31
2022-10-01T20:12:01.760Z,13.43
2022-10-01T20:17:23.506Z,13.41
2022-10-01T20:22:58.667Z,13.35
2022-10-01T20:28:19.461Z,13.27
2022-10-01T20:33:36.020Z,13.21
2022-10-01T20:38:45.349Z,13.30
2022-10-01T20:43:52.982Z,13.46
2022-10-01T20:49:18.305Z,13.54
2022-10-01T20:54:36.167Z,13.54
2022-10-01T20:59:51.649Z,13.41
2022-10-01T21:05:06.631Z,13.36
2022-10-01T21:10:46.322Z,13.38
2022-10-01T21:16:23.375Z,13.40
2022-10-01T21:21:55.411Z,13.45
2022-10-01T21:27:35.798Z,13.40
2022-10-01T21:33:02.083Z,13.28
2022-10-01T21:38:28.099Z,13.21
2022-10-01T21:44:12.473Z,13.29
2022-10-01T21:49:46.097Z,13.31
2022-10-01T21:55:06.204Z,13.28
2022-10-01T22:00:28.976Z,13.15
2022-10-01T22:05:41.173Z,13.07
2022-10-01T22:10:51.064Z,13.04
2022-10-01T22:15:59.393Z,13.05
2022-10-01T22:21:08.750Z,13.05
2022-10-01T22:26:17.590Z,13.05
2022-10-01T22:31:26.203Z,12.98
2022-10-01T22:36:41.842Z,12.95
2022-10-01T22:41:56.689Z,12.99
2022-10-01T22:47:02.595Z,12.96
2022-10-01T22:52:54.703Z,12.88
2022-10-01T22:58:18.544Z,12.85
2022-10-01T23:03:41.727Z,12.83
2022-10-01T23:09:18.322Z,12.75
2022-10-01T23:14:42.527Z,12.71
2022-10-01T23:20:06.875Z,12.69
2022-10-01T23:25:18.820Z,12.72
2022-10-01T23:30:22.167Z,12.81
2022-10-01T23:35:42.811Z,12.89
2022-10-01T23:40:48.343Z,12.94
2022-10-01T23:46:07.595Z,12.96
2022-10-01T23:51:23.237Z,13.01
2022-10-01T23:56:48.882Z,13.04
